Darstellungsparameter: Aktuell verwendete Einstellungen:
Skalierung der Graphiken ... ?
xyx+y,   Skalierungsfaktor:      Skalierung: Modus: x, Faktor: 1
Darstellungszeitraum ... ?
Vom - - bis: - -   Zeitraum: 28.03.2020 - 28.03.2020
Min/Max/Avg-Anzeige ... ?
Zeige MMA aktuell
Zeige MMA Monat
Zeige MMA alles
Zeige --A aktuell
Zeige --A Monat
Zeige --A alles
Keine MMA-Anzeige
MMA:
Minimum Maximum Average (ber die Originaldaten)
MMA-Basis: 28.03.2020 - 28.03.2020
Quicknavigation für Darstellung... ?
Tage:      1T, 2T, 3T, 5T -1T -2T -3T -5T +1T +2T +3T +5T
Wochen: 1W, 2W, 3W -1W -2W -3W +1W +2W +3W
Monate: 1M, 3M, 6M -1M -3M -6M +1M +3M +6M
Jahre:    1J, 3J, 5J, 10J -1J -3J -5J -10J +1J +3J +5J +10J
Nutze für die Darstellung ... ?
Originaldaten oder Mittelwerte auf ...
Stundenbasis Tagesbasis Wochenbasis
Monatsbasis Jahresbasis      Datenbasis: Original-Daten
Darstellen als:
Statistik (Auto) Statistik J:M      Darstellung:
Zur Graphik,    zurück zur Übersicht aller Sensoren.
 
Tabellarische Datenbersicht: ?
 
Sensor: Nr:Datum:Temp:Abs-Feuchte:Windchill:Wind:
Aussen-T/F 1 28-03-2020 00:00:00 5.8 C 5.8 g/m*3 5.8 C 0 km/h
2 28-03-2020 00:05:00 5.7 C 5.84 g/m*3 5.7 C 0 km/h
3 28-03-2020 00:10:00 5.7 C 5.84 g/m*3 5.7 C 0 km/h
4 28-03-2020 00:15:00 5.6 C 5.8 g/m*3 5.6 C 0 km/h
5 28-03-2020 00:20:00 5.6 C 5.87 g/m*3 5.6 C 0 km/h
6 28-03-2020 00:25:00 5.6 C 5.87 g/m*3 5.6 C 0 km/h
7 28-03-2020 00:30:00 5.6 C 5.87 g/m*3 5.6 C 0 km/h
8 28-03-2020 00:35:00 5.7 C 5.91 g/m*3 5.7 C 0 km/h
9 28-03-2020 00:40:00 5.7 C 5.84 g/m*3 5.7 C 0 km/h
10 28-03-2020 00:45:00 5.7 C 5.84 g/m*3 5.7 C 0 km/h
11 28-03-2020 00:50:00 5.7 C 5.84 g/m*3 5.7 C 0 km/h
12 28-03-2020 00:55:00 5.6 C 5.8 g/m*3 5.6 C 0 km/h
13 28-03-2020 01:00:00 5.6 C 5.8 g/m*3 5.6 C 0 km/h
14 28-03-2020 01:05:00 5.4 C 5.72 g/m*3 5.4 C 0 km/h
15 28-03-2020 01:10:00 5.4 C 5.79 g/m*3 5.4 C 0 km/h
16 28-03-2020 01:15:00 5.3 C 5.75 g/m*3 5.3 C 0 km/h
17 28-03-2020 01:20:00 5.2 C 5.71 g/m*3 5.2 C 0 km/h
18 28-03-2020 01:25:00 5.1 C 5.68 g/m*3 5.1 C 0 km/h
19 28-03-2020 01:30:00 5 C 5.71 g/m*3 5 C 0 km/h
20 28-03-2020 01:35:00 4.9 C 5.67 g/m*3 4.9 C 0 km/h
21 28-03-2020 01:40:00 4.8 C 5.63 g/m*3 4.8 C 0 km/h
22 28-03-2020 01:45:00 4.8 C 5.63 g/m*3 4.8 C 0 km/h
23 28-03-2020 01:50:00 4.7 C 5.66 g/m*3 4.7 C 0 km/h
24 28-03-2020 01:55:00 4.7 C 5.66 g/m*3 4.7 C 0 km/h
25 28-03-2020 02:00:00 4.6 C 5.62 g/m*3 4.6 C 0 km/h
Sensor: Nr:Datum:Temp:Abs-Feuchte:Windchill:Wind:
Aussen-T/F 26 28-03-2020 02:05:00 4.5 C 5.59 g/m*3 4.5 C 0 km/h
27 28-03-2020 02:10:00 4.4 C 5.55 g/m*3 4.4 C 0 km/h
28 28-03-2020 02:15:00 4.3 C 5.51 g/m*3 4.3 C 0 km/h
29 28-03-2020 02:20:00 4.3 C 5.58 g/m*3 4.3 C 0 km/h
30 28-03-2020 02:25:00 4.3 C 5.58 g/m*3 4.3 C 0 km/h
31 28-03-2020 02:30:00 4.2 C 5.61 g/m*3 4.2 C 0 km/h
32 28-03-2020 02:35:00 4.3 C 5.64 g/m*3 4.3 C 0 km/h
33 28-03-2020 02:40:00 4.3 C 5.64 g/m*3 4.3 C 0 km/h
34 28-03-2020 02:45:00 4.3 C 5.64 g/m*3 4.3 C 0 km/h
35 28-03-2020 02:50:00 4.3 C 5.64 g/m*3 4.3 C 0 km/h
36 28-03-2020 02:55:00 4.3 C 5.58 g/m*3 4.3 C 0 km/h
37 28-03-2020 03:00:00 4.2 C 5.54 g/m*3 4.2 C 0 km/h
38 28-03-2020 03:05:00 4.2 C 5.61 g/m*3 4.2 C 0 km/h
39 28-03-2020 03:10:00 4.1 C 5.57 g/m*3 4.1 C 0 km/h
40 28-03-2020 03:15:00 4.1 C 5.57 g/m*3 4.1 C 0 km/h
41 28-03-2020 03:20:00 3.9 C 5.49 g/m*3 3.9 C 0 km/h
42 28-03-2020 03:25:00 3.9 C 5.49 g/m*3 3.9 C 0 km/h
43 28-03-2020 03:30:00 3.8 C 5.46 g/m*3 3.8 C 0 km/h
44 28-03-2020 03:35:00 3.7 C 5.42 g/m*3 3.7 C 0 km/h
45 28-03-2020 03:40:00 3.5 C 5.35 g/m*3 3.5 C 0 km/h
46 28-03-2020 03:45:00 3.3 C 5.28 g/m*3 3.3 C 0 km/h
47 28-03-2020 03:50:00 3.2 C 5.3 g/m*3 3.2 C 0 km/h
48 28-03-2020 03:55:00 3.1 C 5.27 g/m*3 3.1 C 0 km/h
49 28-03-2020 04:00:00 3 C 5.23 g/m*3 3 C 0 km/h
50 28-03-2020 04:05:00 2.9 C 5.26 g/m*3 2.9 C 0 km/h
Sensor: Nr:Datum:Temp:Abs-Feuchte:Windchill:Wind:
Aussen-T/F 51 28-03-2020 04:10:00 3 C 5.29 g/m*3 3 C 0 km/h
52 28-03-2020 04:15:00 3 C 5.29 g/m*3 3 C 0 km/h
53 28-03-2020 04:20:00 2.9 C 5.26 g/m*3 2.9 C 0 km/h
54 28-03-2020 04:25:00 2.8 C 5.22 g/m*3 2.8 C 0 km/h
55 28-03-2020 04:30:00 2.7 C 5.19 g/m*3 2.7 C 0 km/h
56 28-03-2020 04:35:00 2.7 C 5.19 g/m*3 2.7 C 0 km/h
57 28-03-2020 04:40:00 2.6 C 5.21 g/m*3 2.6 C 0 km/h
58 28-03-2020 04:45:00 2.5 C 5.17 g/m*3 2.5 C 0 km/h
59 28-03-2020 04:50:00 2.6 C 5.21 g/m*3 2.6 C 0 km/h
60 28-03-2020 04:55:00 2.6 C 5.27 g/m*3 2.6 C 0 km/h
61 28-03-2020 05:00:00 2.7 C 5.3 g/m*3 2.7 C 0 km/h
62 28-03-2020 05:05:00 2.6 C 5.27 g/m*3 2.6 C 0 km/h
63 28-03-2020 05:10:00 2.6 C 5.27 g/m*3 2.6 C 0 km/h
64 28-03-2020 05:15:00 2.6 C 5.27 g/m*3 2.6 C 0 km/h
65 28-03-2020 05:20:00 2.4 C 5.14 g/m*3 2.4 C 0 km/h
66 28-03-2020 05:25:00 2.3 C 5.1 g/m*3 2.3 C 0 km/h
67 28-03-2020 05:30:00 2.2 C 5.07 g/m*3 2.2 C 0 km/h
68 28-03-2020 05:35:00 2.1 C 5.09 g/m*3 2.1 C 0 km/h
69 28-03-2020 05:40:00 2.1 C 5.09 g/m*3 2.1 C 0 km/h
70 28-03-2020 05:45:00 2 C 5.06 g/m*3 2 C 0 km/h
71 28-03-2020 05:50:00 2.1 C 5.09 g/m*3 2.1 C 0 km/h
72 28-03-2020 05:55:00 2.1 C 5.15 g/m*3 2.1 C 0 km/h
73 28-03-2020 06:00:00 2.1 C 5.15 g/m*3 2.1 C 0 km/h
74 28-03-2020 06:05:00 2 C 5.11 g/m*3 2 C 0 km/h
75 28-03-2020 06:10:00 1.9 C 5.02 g/m*3 1.9 C 0 km/h
Sensor: Nr:Datum:Temp:Abs-Feuchte:Windchill:Wind:
Aussen-T/F 76 28-03-2020 06:15:00 1.9 C 5.08 g/m*3 1.9 C 0 km/h
77 28-03-2020 06:20:00 1.9 C 5.08 g/m*3 1.9 C 0 km/h
78 28-03-2020 06:25:00 1.8 C 5.04 g/m*3 1.8 C 0 km/h
79 28-03-2020 06:30:00 1.8 C 5.04 g/m*3 1.8 C 0 km/h
80 28-03-2020 06:35:00 1.8 C 5.04 g/m*3 1.8 C 0 km/h
81 28-03-2020 06:40:00 1.8 C 5.04 g/m*3 1.8 C 0 km/h
82 28-03-2020 06:45:00 1.8 C 5.04 g/m*3 1.8 C 0 km/h
83 28-03-2020 06:50:00 1.8 C 5.04 g/m*3 1.8 C 0 km/h
84 28-03-2020 06:55:00 1.8 C 5.1 g/m*3 1.8 C 0 km/h
85 28-03-2020 07:00:00 1.9 C 5.13 g/m*3 1.9 C 0 km/h
86 28-03-2020 07:05:00 2 C 5.17 g/m*3 2 C 0 km/h
87 28-03-2020 07:10:00 2.1 C 5.2 g/m*3 2.1 C 0 km/h
88 28-03-2020 07:15:00 2.3 C 5.33 g/m*3 2.3 C 0 km/h
89 28-03-2020 07:20:00 2.4 C 5.31 g/m*3 2.4 C 0 km/h
90 28-03-2020 07:25:00 2.5 C 5.35 g/m*3 2.5 C 0 km/h
91 28-03-2020 07:30:00 2.6 C 5.38 g/m*3 2.6 C 0 km/h
92 28-03-2020 07:35:00 2.6 C 5.38 g/m*3 2.6 C 0 km/h
93 28-03-2020 07:40:00 2.6 C 5.38 g/m*3 2.6 C 0 km/h
94 28-03-2020 07:45:00 2.6 C 5.38 g/m*3 2.6 C 0 km/h
95 28-03-2020 07:50:00 2.7 C 5.42 g/m*3 2.7 C 0 km/h
96 28-03-2020 07:55:00 2.7 C 5.42 g/m*3 2.7 C 0 km/h
97 28-03-2020 08:00:00 2.8 C 5.46 g/m*3 2.8 C 0 km/h
98 28-03-2020 08:05:00 2.8 C 5.46 g/m*3 2.8 C 0 km/h
99 28-03-2020 08:10:00 2.9 C 5.49 g/m*3 2.9 C 0 km/h
100 28-03-2020 08:15:00 3 C 5.53 g/m*3 3 C 0 km/h
Sensor: Nr:Datum:Temp:Abs-Feuchte:Windchill:Wind:
Aussen-T/F 101 28-03-2020 08:20:00 3.2 C 5.6 g/m*3 3.2 C 0 km/h
102 28-03-2020 08:25:00 3.3 C 5.64 g/m*3 3.3 C 0 km/h
103 28-03-2020 08:30:00 3.4 C 5.68 g/m*3 3.4 C 0 km/h
104 28-03-2020 08:35:00 3.6 C 5.76 g/m*3 3.6 C 0 km/h
105 28-03-2020 08:40:00 3.7 C 5.8 g/m*3 3.7 C 0 km/h
106 28-03-2020 08:45:00 3.9 C 5.87 g/m*3 3.9 C 0 km/h
107 28-03-2020 08:50:00 4.1 C 5.95 g/m*3 4.1 C 0 km/h
108 28-03-2020 08:55:00 4.2 C 5.99 g/m*3 4.2 C 0 km/h
109 28-03-2020 09:00:00 4.5 C 6.11 g/m*3 4.5 C 0 km/h
110 28-03-2020 09:05:00 4.7 C 6.19 g/m*3 4.7 C 0 km/h
111 28-03-2020 09:10:00 5 C 6.32 g/m*3 5 C 0 km/h
112 28-03-2020 09:15:00 5.3 C 6.45 g/m*3 5.3 C 0 km/h
113 28-03-2020 09:20:00 5.6 C 6.5 g/m*3 5.6 C 0 km/h
114 28-03-2020 09:25:00 5.8 C 6.59 g/m*3 5.8 C 0 km/h
115 28-03-2020 09:30:00 6.2 C 6.69 g/m*3 6.2 C 0 km/h
116 28-03-2020 09:35:00 6.4 C 6.71 g/m*3 6.4 C 0 km/h
117 28-03-2020 09:40:00 6.8 C 6.81 g/m*3 6.8 C 0 km/h
118 28-03-2020 09:45:00 7.1 C 6.86 g/m*3 7.1 C 0 km/h
119 28-03-2020 09:50:00 7.4 C 6.84 g/m*3 7.4 C 0 km/h
120 28-03-2020 09:55:00 7.8 C 6.94 g/m*3 7.8 C 0 km/h
121 28-03-2020 10:00:00 8.2 C 6.95 g/m*3 8.2 C 0 km/h
122 28-03-2020 10:05:00 8.6 C 6.96 g/m*3 8.6 C 0 km/h
123 28-03-2020 10:10:00 8.9 C 6.92 g/m*3 8.9 C 0 km/h
124 28-03-2020 10:15:00 9.2 C 6.97 g/m*3 9.2 C 0 km/h
125 28-03-2020 10:20:00 9.4 C 6.78 g/m*3 9.4 C 1.6 km/h
Sensor: Nr:Datum:Temp:Abs-Feuchte:Windchill:Wind:
Aussen-T/F 126 28-03-2020 10:25:00 9.8 C 6.87 g/m*3 9.8 C 0 km/h
127 28-03-2020 10:30:00 10.1 C 6.9 g/m*3 10.1 C 0 km/h
128 28-03-2020 10:35:00 10.3 C 6.9 g/m*3 10.3 C 0 km/h
129 28-03-2020 10:40:00 10.6 C 6.83 g/m*3 10.6 C 0 km/h
130 28-03-2020 10:45:00 10.8 C 6.82 g/m*3 10.8 C 1.6 km/h
131 28-03-2020 10:50:00 11.1 C 6.95 g/m*3 11.1 C 0 km/h
132 28-03-2020 10:55:00 11.3 C 7.04 g/m*3 11.3 C 1.6 km/h
133 28-03-2020 11:00:00 11.7 C 7.11 g/m*3 11.7 C 0 km/h
134 28-03-2020 11:05:00 12.1 C 7.08 g/m*3 12.1 C 1.6 km/h
135 28-03-2020 11:10:00 12.3 C 6.73 g/m*3 12.3 C 1.6 km/h
136 28-03-2020 11:15:00 12.7 C 7.12 g/m*3 12.7 C 1.6 km/h
137 28-03-2020 11:20:00 13.1 C 7.07 g/m*3 13.1 C 0 km/h
138 28-03-2020 11:25:00 13.3 C 6.93 g/m*3 13.3 C 3.2 km/h
139 28-03-2020 11:30:00 13.6 C 6.94 g/m*3 13.6 C 1.6 km/h
140 28-03-2020 11:35:00 13.8 C 6.91 g/m*3 13.8 C 1.6 km/h
141 28-03-2020 11:40:00 14.2 C 6.84 g/m*3 14.2 C 1.6 km/h
142 28-03-2020 11:45:00 14.4 C 6.92 g/m*3 14.4 C 1.6 km/h
143 28-03-2020 11:50:00 14.6 C 6.88 g/m*3 14.6 C 3.2 km/h
144 28-03-2020 11:55:00 14.8 C 6.71 g/m*3 14.8 C 1.6 km/h
145 28-03-2020 12:00:00 14.9 C 6.88 g/m*3 14.9 C 4.8 km/h
146 28-03-2020 12:05:00 15.2 C 6.75 g/m*3 15.2 C 3.2 km/h
147 28-03-2020 12:10:00 15.3 C 6.79 g/m*3 15.3 C 1.6 km/h
148 28-03-2020 12:15:00 15.6 C 6.65 g/m*3 15.6 C 0 km/h
149 28-03-2020 12:20:00 15.8 C 6.6 g/m*3 15.8 C 3.2 km/h
150 28-03-2020 12:25:00 16.1 C 6.58 g/m*3 16.1 C 6.4 km/h
Sensor: Nr:Datum:Temp:Abs-Feuchte:Windchill:Wind:
Aussen-T/F 151 28-03-2020 12:30:00 16.2 C 6.62 g/m*3 16.2 C 6.4 km/h
152 28-03-2020 12:35:00 16.4 C 6.84 g/m*3 16.4 C 4.8 km/h
153 28-03-2020 12:40:00 16.5 C 6.88 g/m*3 16.5 C 4.8 km/h
154 28-03-2020 12:45:00 16.7 C 6.68 g/m*3 16.7 C 3.2 km/h
155 28-03-2020 12:50:00 16.8 C 6.72 g/m*3 16.8 C 3.2 km/h
156 28-03-2020 12:55:00 16.9 C 6.76 g/m*3 16.9 C 6.4 km/h
157 28-03-2020 13:00:00 17 C 6.51 g/m*3 17 C 8.1 km/h
158 28-03-2020 13:05:00 17.2 C 6.44 g/m*3 17.2 C 6.4 km/h
159 28-03-2020 13:10:00 17.2 C 6.3 g/m*3 17.2 C 9.7 km/h
160 28-03-2020 13:15:00 17.3 C 6.63 g/m*3 17.3 C 6.4 km/h
161 28-03-2020 13:20:00 17.5 C 6.56 g/m*3 17.5 C 3.2 km/h
162 28-03-2020 13:25:00 17.7 C 6.49 g/m*3 17.7 C 3.2 km/h
163 28-03-2020 13:30:00 17.8 C 6.68 g/m*3 17.8 C 6.4 km/h
164 28-03-2020 13:35:00 17.9 C 6.57 g/m*3 17.9 C 8.1 km/h
165 28-03-2020 13:40:00 18 C 6.6 g/m*3 18 C 12.9 km/h
166 28-03-2020 13:45:00 18.1 C 6.64 g/m*3 18.1 C 12.9 km/h
167 28-03-2020 13:50:00 18.2 C 6.84 g/m*3 18.2 C 17.7 km/h
168 28-03-2020 13:55:00 18.1 C 6.8 g/m*3 18.1 C 17.7 km/h
169 28-03-2020 14:00:00 18.1 C 6.8 g/m*3 18.1 C 9.7 km/h
170 28-03-2020 14:05:00 18.2 C 6.84 g/m*3 18.2 C 9.7 km/h
171 28-03-2020 14:10:00 18.2 C 6.53 g/m*3 18.2 C 12.9 km/h
172 28-03-2020 14:15:00 18.2 C 6.53 g/m*3 18.2 C 8.1 km/h
173 28-03-2020 14:20:00 18.2 C 6.68 g/m*3 18.2 C 14.5 km/h
174 28-03-2020 14:25:00 18.2 C 6.68 g/m*3 18.2 C 11.3 km/h
175 28-03-2020 14:30:00 18.2 C 6.68 g/m*3 18.2 C 9.7 km/h
Sensor: Nr:Datum:Temp:Abs-Feuchte:Windchill:Wind:
Aussen-T/F 176 28-03-2020 14:35:00 18.3 C 6.72 g/m*3 18.3 C 9.7 km/h
177 28-03-2020 14:40:00 18.3 C 6.57 g/m*3 18.3 C 11.3 km/h
178 28-03-2020 14:45:00 18.3 C 6.72 g/m*3 18.3 C 11.3 km/h
179 28-03-2020 14:50:00 18.4 C 6.45 g/m*3 18.4 C 11.3 km/h
180 28-03-2020 14:55:00 18.4 C 6.45 g/m*3 18.4 C 11.3 km/h
181 28-03-2020 15:00:00 18.4 C 6.29 g/m*3 18.4 C 12.9 km/h
182 28-03-2020 15:05:00 18.6 C 6.21 g/m*3 18.6 C 14.5 km/h
183 28-03-2020 15:10:00 18.5 C 5.85 g/m*3 18.5 C 9.7 km/h
184 28-03-2020 15:15:00 18.4 C 5.82 g/m*3 18.4 C 8.1 km/h
185 28-03-2020 15:20:00 18.2 C 6.22 g/m*3 18.2 C 11.3 km/h
186 28-03-2020 15:25:00 18 C 6.45 g/m*3 18 C 14.5 km/h
187 28-03-2020 15:30:00 18.1 C 6.18 g/m*3 18.1 C 12.9 km/h
188 28-03-2020 15:35:00 18.1 C 6.49 g/m*3 18.1 C 16.1 km/h
189 28-03-2020 15:40:00 18.3 C 6.57 g/m*3 18.3 C 16.1 km/h
190 28-03-2020 15:45:00 18.5 C 6.33 g/m*3 18.5 C 12.9 km/h
191 28-03-2020 15:50:00 18.4 C 6.45 g/m*3 18.4 C 16.1 km/h
192 28-03-2020 15:55:00 18.4 C 6.61 g/m*3 18.4 C 20.9 km/h
193 28-03-2020 16:00:00 18.3 C 6.41 g/m*3 18.3 C 20.9 km/h
194 28-03-2020 16:05:00 18.2 C 6.37 g/m*3 18.2 C 14.5 km/h
195 28-03-2020 16:10:00 18.3 C 6.25 g/m*3 18.3 C 12.9 km/h
196 28-03-2020 16:15:00 18.4 C 6.29 g/m*3 18.4 C 12.9 km/h
197 28-03-2020 16:20:00 18.3 C 6.1 g/m*3 18.3 C 22.5 km/h
198 28-03-2020 16:25:00 18.2 C 5.91 g/m*3 18.2 C 22.5 km/h
199 28-03-2020 16:30:00 18.1 C 5.87 g/m*3 18.1 C 19.3 km/h
200 28-03-2020 16:35:00 17.9 C 5.65 g/m*3 17.9 C 22.5 km/h
Sensor: Nr:Datum:Temp:Abs-Feuchte:Windchill:Wind:
Aussen-T/F 201 28-03-2020 16:40:00 17.8 C 5.77 g/m*3 17.8 C 14.5 km/h
202 28-03-2020 16:45:00 17.8 C 5.46 g/m*3 17.8 C 14.5 km/h
203 28-03-2020 16:50:00 17.7 C 5.43 g/m*3 17.7 C 17.7 km/h
204 28-03-2020 16:55:00 17.6 C 5.4 g/m*3 17.6 C 14.5 km/h
205 28-03-2020 17:00:00 17.6 C 5.4 g/m*3 17.6 C 20.9 km/h
206 28-03-2020 17:05:00 17.5 C 5.22 g/m*3 17.5 C 16.1 km/h
207 28-03-2020 17:10:00 17.4 C 5.19 g/m*3 17.4 C 19.3 km/h
208 28-03-2020 17:15:00 17.3 C 5.16 g/m*3 17.3 C 22.5 km/h
209 28-03-2020 17:20:00 17 C 5.06 g/m*3 17 C 16.1 km/h
210 28-03-2020 17:25:00 16.9 C 5.03 g/m*3 16.9 C 14.5 km/h
211 28-03-2020 17:30:00 16.8 C 5 g/m*3 16.8 C 14.5 km/h
212 28-03-2020 17:35:00 16.6 C 4.94 g/m*3 16.6 C 22.5 km/h
213 28-03-2020 17:40:00 16.4 C 4.89 g/m*3 16.4 C 11.3 km/h
214 28-03-2020 17:45:00 16.3 C 4.99 g/m*3 16.3 C 11.3 km/h
215 28-03-2020 17:50:00 16.2 C 4.96 g/m*3 16.2 C 11.3 km/h
216 28-03-2020 17:55:00 15.9 C 4.74 g/m*3 15.9 C 16.1 km/h
217 28-03-2020 18:00:00 15.7 C 4.82 g/m*3 15.7 C 14.5 km/h
218 28-03-2020 18:05:00 15.5 C 4.89 g/m*3 15.5 C 11.3 km/h
219 28-03-2020 18:10:00 15.3 C 4.7 g/m*3 15.3 C 14.5 km/h
220 28-03-2020 18:15:00 15.1 C 4.9 g/m*3 15.1 C 14.5 km/h
221 28-03-2020 18:20:00 14.9 C 4.97 g/m*3 14.9 C 11.3 km/h
222 28-03-2020 18:25:00 14.7 C 5.04 g/m*3 14.7 C 12.9 km/h
223 28-03-2020 18:30:00 14.4 C 5.07 g/m*3 14.4 C 6.4 km/h
224 28-03-2020 18:35:00 14.2 C 5.01 g/m*3 14.2 C 16.1 km/h
225 28-03-2020 18:40:00 13.9 C 5.04 g/m*3 13.9 C 8.1 km/h
Sensor: Nr:Datum:Temp:Abs-Feuchte:Windchill:Wind:
Aussen-T/F 226 28-03-2020 18:45:00 13.7 C 4.97 g/m*3 13.7 C 11.3 km/h
227 28-03-2020 18:50:00 13.6 C 5.06 g/m*3 13.6 C 14.5 km/h
228 28-03-2020 18:55:00 13.3 C 5.08 g/m*3 13.3 C 8.1 km/h
229 28-03-2020 19:00:00 13.2 C 5.05 g/m*3 13.2 C 14.5 km/h
230 28-03-2020 19:05:00 13 C 5.1 g/m*3 13 C 11.3 km/h
231 28-03-2020 19:10:00 12.8 C 5.15 g/m*3 12.8 C 9.7 km/h
232 28-03-2020 19:15:00 12.7 C 5.12 g/m*3 12.7 C 11.3 km/h
233 28-03-2020 19:20:00 12.5 C 5.06 g/m*3 12.5 C 12.9 km/h
234 28-03-2020 19:25:00 12.4 C 5.14 g/m*3 12.4 C 8.1 km/h
235 28-03-2020 19:30:00 12.2 C 5.07 g/m*3 12.2 C 8.1 km/h
236 28-03-2020 19:35:00 12.1 C 5.15 g/m*3 12.1 C 12.9 km/h
237 28-03-2020 19:40:00 12 C 5.01 g/m*3 12 C 11.3 km/h
238 28-03-2020 19:45:00 11.9 C 4.98 g/m*3 11.9 C 14.5 km/h
239 28-03-2020 19:50:00 11.8 C 5.05 g/m*3 11.8 C 6.4 km/h
240 28-03-2020 19:55:00 11.7 C 5.02 g/m*3 11.7 C 8.1 km/h
241 28-03-2020 20:00:00 11.6 C 5.09 g/m*3 11.6 C 11.3 km/h
242 28-03-2020 20:05:00 11.4 C 5.03 g/m*3 11.4 C 4.8 km/h
243 28-03-2020 20:10:00 11.4 C 5.03 g/m*3 11.4 C 6.4 km/h
244 28-03-2020 20:15:00 11.3 C 5.1 g/m*3 11.3 C 6.4 km/h
245 28-03-2020 20:20:00 11.2 C 5.07 g/m*3 11.2 C 11.3 km/h
246 28-03-2020 20:25:00 11.2 C 5.17 g/m*3 11.2 C 4.8 km/h
247 28-03-2020 20:30:00 11.1 C 5.14 g/m*3 11.1 C 9.7 km/h
248 28-03-2020 20:35:00 10.9 C 5.17 g/m*3 10.9 C 4.8 km/h
249 28-03-2020 20:40:00 10.7 C 5.21 g/m*3 10.7 C 4.8 km/h
250 28-03-2020 20:45:00 10.4 C 5.2 g/m*3 10.4 C 1.6 km/h
Sensor: Nr:Datum:Temp:Abs-Feuchte:Windchill:Wind:
Aussen-T/F 251 28-03-2020 20:50:00 10.2 C 5.23 g/m*3 10.2 C 3.2 km/h
252 28-03-2020 20:55:00 9.9 C 5.23 g/m*3 9.25 C 6.4 km/h
253 28-03-2020 21:00:00 9.8 C 5.29 g/m*3 9.8 C 1.6 km/h
254 28-03-2020 21:05:00 9.8 C 5.2 g/m*3 9.14 C 6.4 km/h
255 28-03-2020 21:10:00 9.8 C 5.29 g/m*3 9.8 C 1.6 km/h
256 28-03-2020 21:15:00 9.8 C 5.29 g/m*3 9.8 C 4.8 km/h
257 28-03-2020 21:20:00 9.8 C 5.38 g/m*3 9.8 C 1.6 km/h
258 28-03-2020 21:25:00 9.6 C 5.31 g/m*3 9.6 C 0 km/h
259 28-03-2020 21:30:00 9.3 C 5.21 g/m*3 9.3 C 3.2 km/h
260 28-03-2020 21:35:00 9.2 C 5.27 g/m*3 9.2 C 3.2 km/h
261 28-03-2020 21:40:00 9.2 C 5.27 g/m*3 9.2 C 3.2 km/h
262 28-03-2020 21:45:00 9.1 C 5.32 g/m*3 7.93 C 8.1 km/h
263 28-03-2020 21:50:00 8.8 C 5.22 g/m*3 8.8 C 1.6 km/h
264 28-03-2020 21:55:00 8.7 C 5.19 g/m*3 7.87 C 6.4 km/h
265 28-03-2020 22:00:00 8.9 C 5.26 g/m*3 7.69 C 8.1 km/h
266 28-03-2020 22:05:00 9.1 C 5.23 g/m*3 7.93 C 8.1 km/h
267 28-03-2020 22:10:00 9.2 C 5.18 g/m*3 7.46 C 11.3 km/h
268 28-03-2020 22:15:00 9.2 C 5.27 g/m*3 8.45 C 6.4 km/h
269 28-03-2020 22:20:00 9.3 C 5.3 g/m*3 7.85 C 9.7 km/h
270 28-03-2020 22:25:00 9.2 C 5.45 g/m*3 7.73 C 9.7 km/h
271 28-03-2020 22:30:00 9.2 C 5.63 g/m*3 6.99 C 14.5 km/h
272 28-03-2020 22:35:00 9.1 C 5.59 g/m*3 6.87 C 14.5 km/h
273 28-03-2020 22:40:00 9 C 5.55 g/m*3 7.49 C 9.7 km/h
274 28-03-2020 22:45:00 8.9 C 5.61 g/m*3 8.1 C 6.4 km/h
275 28-03-2020 22:50:00 8.7 C 5.62 g/m*3 8.7 C 4.8 km/h
Sensor: Nr:Datum:Temp:Abs-Feuchte:Windchill:Wind:
Aussen-T/F 276 28-03-2020 22:55:00 8.6 C 5.67 g/m*3 7.75 C 6.4 km/h
277 28-03-2020 23:00:00 8.4 C 5.68 g/m*3 7.11 C 8.1 km/h
278 28-03-2020 23:05:00 8.4 C 5.77 g/m*3 6.01 C 14.5 km/h
279 28-03-2020 23:10:00 8.3 C 5.73 g/m*3 6.99 C 8.1 km/h
280 28-03-2020 23:15:00 8.3 C 5.82 g/m*3 8.3 C 4.8 km/h
281 28-03-2020 23:20:00 8.2 C 5.86 g/m*3 6.54 C 9.7 km/h
282 28-03-2020 23:25:00 8.1 C 5.91 g/m*3 5.87 C 12.9 km/h
283 28-03-2020 23:30:00 8.1 C 5.91 g/m*3 6.42 C 9.7 km/h
284 28-03-2020 23:35:00 7.9 C 5.83 g/m*3 5.39 C 14.5 km/h
285 28-03-2020 23:40:00 7.8 C 5.88 g/m*3 6.83 C 6.4 km/h
286 28-03-2020 23:45:00 7.7 C 5.84 g/m*3 5.38 C 12.9 km/h
287 28-03-2020 23:50:00 7.7 C 5.92 g/m*3 6.28 C 8.1 km/h
288 28-03-2020 23:55:00 7.6 C 5.88 g/m*3 5.53 C 11.3 km/h

Legende:
   Min
   Max


Maximal/Minimal-Werte vom 28.03.2020 - 28.03.2020

Sensor Min Max Avg
Temp
(Aussen-T/F)
1.8 °C
28-03-2020  06:25:00
18.6 °C
28-03-2020  15:05:00
9.6 °C
Abs-Feuchte
(Aussen-T/F)
4.7 g/m*3
28-03-2020  18:10:00
7.12 g/m*3
28-03-2020  11:15:00
5.75 g/m*3
Windchill
(Aussen-T/F)
1.8 C
28-03-2020  06:25:00
18.6 C
28-03-2020  15:05:00
9.43 C

Die Daten stammen von einer Davis Vantage Pro 2 Wetter-Station und werden unter Linux mit der Software wview2wettercgi und aufbereitet. Alle Angaben erfolgen ohne Gewähr für ihre Vollständigkeit oder Richtigkeit.
Kontakt: Rainer Krienke krienke@uni-koblenz.de . Meine Webseiten an der Uni Koblenz oder privat.
Version: $Revision: 0.78 $